Kesley, IA (50649)

6:50 PM CDT on July 30, 2016 (GMT -0500)
Skyhawkdoc--Parkersburg IA | | Change Station
Active Advisory: Special Statement

Elev 994 ft 42.58 °N, 92.78 °W | Updated 2 minutes ago

Scattered Clouds
Scattered Clouds
84.0 °F
Feels Like 87 °F
N
0.0
Wind Variable Wind from ESE

Today
High -- | Low -- °F
--% Chance of Precip.
Yesterday
High -- | Low -- °F
Precip. -- in
Pressure 29.95 in
Visibility 10.0 miles
Clouds Scattered Clouds 4300 ft
Heat Index 87 °F
Dew Point 68 °F
Humidity 59%
Rainfall 0.00 in
Snow Depth Not available.
6:01 AM 8:33 PM
Waning Crescent, 10% visible
METAR KALO 302254Z 06004KT 10SM SCT043 26/19 A2996 RMK AO2 SLP141 T02560189
Pressure 29.95 in
Visibility 10.0 miles
Clouds Scattered Clouds 4300 ft
Heat Index 87 °F
Dew Point 68 °F
Humidity 59%
Rainfall 0.00 in
Snow Depth Not available.
6:01 AM 8:33 PM
Waning Crescent, 10% visible
METAR KALO 302254Z 06004KT 10SM SCT043 26/19 A2996 RMK AO2 SLP141 T02560189

10-Day Weather Forecast

Almanac

Astronomy

Jul. 30, 2016 Rise Set
Actual Time
Civil Twilight
Nautical Twilight
Astronomical Twilight
Moon
Length of Visible Light
Length of Day
Tomorrow will be .
, % of the Moon is Illuminated

Today's Extremes

State Highs State Lows

Community

WunderPhotos

Upload Photos

1,928,680 photos uploaded!

WunderBlog® & News

Nearby

Air Quality

  Air Quality AQ Index Pollutant
Not available.

Snow Depth

Station Depth Elevation

Earthquake Activity

City Distance Mag. Time & Date
Minimum magnitude displayed is 2.5.

Coastal Water Temperatures

Place Temperature

Stations

Nearby Weather Stations

Station Location Temp. Windchill Dew Point Humidity Wind Precip. Elev Updated Type
                   

Watches & Warnings

Special Statement
Issued: 6:08 PM CDT Jul. 30, 2016 – National Weather Service

... Conditions are favorable for funnel clouds through 8 PM CDT...

Current atmospheric conditions support the development of funnel
clouds. Usually... these funnel clouds can form from showers and
weak thunderstorms. These funnels are normally brief... drop only
a few hundred feet from the cloud base... and rarely become a
tornado or cause damage. However... if one is spotted... please
immediately report it to the National Weather Service. If a Tornado
Warning would become necessary... take appropriate action.


Mjb

608 PM CDT Sat Jul 30 2016

... Conditions are favorable for funnel clouds through 8 PM CDT...

Current atmospheric conditions support the development of funnel
clouds. Usually... these funnel clouds can form from showers and
weak thunderstorms. These funnels are normally brief... drop only
a few hundred feet from the cloud base... and rarely become a
tornado or cause damage. However... if one is spotted... please
immediately report it to the National Weather Service. If a Tornado
Warning would become necessary... take appropriate action.


Mjb